CheckWX is a tool to help pilots better visualize weather data.  It is not intended as a substitute for an official pre-flight weather briefing.

02:42:26 UTC

KCMH METAR
John Glenn Columbus International Airport
Columbus, Ohio, USA
Current

51 mins ago

KCMH 180151Z 23007KT 2SM -FZDZ BR OVC005 M01/M01 A2976 RMK AO2 SFC VIS 3 SLP085 P0000 I1000 T10061011
Observed
Feb-18 @ 01:51 UTC
Wind
  • 230° at 7 KTS
Visibility
2 SM
Flight Rules
IFR
Conditions
Light Freezing Light Drizzle, Mist
Cloud Levels
  • Overcast at 500' AGL
Temperature
-1°C / 30°F
Dewpoint
-1°C / 30°F
Humidity
100%
Altimeter
29.76" Hg
Pressure
1008.5 hPa
Current Rain
0.01"
Previous

2 hours ago

KCMH 180051Z 18003KT 2SM -FZDZ BR OVC005 M01/M01 A2974 RMK AO2 FZDZB47 SLP079 P0000 I1001 T10061011
Observed
Feb-18 @ 00:51 UTC
Wind
  • 180° at 3 KTS
Visibility
2 SM
Flight Rules
IFR
Conditions
Light Freezing Light Drizzle, Mist
Cloud Levels
  • Overcast at 500' AGL
Temperature
-1°C / 30°F
Dewpoint
-1°C / 30°F
Humidity
100%
Altimeter
29.74" Hg
Pressure
1007.9 hPa
Current Rain
0.01"
Previous

2 hours ago

KCMH 180034Z 00000KT 2SM BR OVC005 M01/M01 A2975 RMK AO2 SFC VIS 2 1/2 I1001 T10061011
Observed
Feb-18 @ 00:34 UTC
Visibility
2 SM
Flight Rules
IFR
Conditions
Mist
Cloud Levels
  • Overcast at 500' AGL
Temperature
-1°C / 30°F
Dewpoint
-1°C / 30°F
Humidity
100%
Altimeter
29.75" Hg
Pressure
1007.42 hPa